sensor_id;sensor_type;location;lat;lon;timestamp;pressure;altitude;pressure_sealevel;temperature;humidity
17635;BME280;8936;49.010;12.120;2023-06-26T00:01:55;97925.44;;;26.13;74.94
17635;BME280;8936;49.010;12.120;2023-06-26T00:04:21;97927.63;;;26.04;75.60
17635;BME280;8936;49.010;12.120;2023-06-26T00:06:48;97925.31;;;26.06;75.68
17635;BME280;8936;49.010;12.120;2023-06-26T00:09:14;97919.28;;;25.97;75.95
17635;BME280;8936;49.010;12.120;2023-06-26T00:11:42;97912.97;;;25.93;76.83
17635;BME280;8936;49.010;12.120;2023-06-26T00:14:08;97923.78;;;25.86;77.50
17635;BME280;8936;49.010;12.120;2023-06-26T00:16:34;97928.53;;;25.69;79.00
17635;BME280;8936;49.010;12.120;2023-06-26T00:19:01;97923.00;;;25.66;79.74
17635;BME280;8936;49.010;12.120;2023-06-26T00:21:28;97924.19;;;25.65;80.06
17635;BME280;8936;49.010;12.120;2023-06-26T00:23:54;97925.38;;;25.67;79.98
17635;BME280;8936;49.010;12.120;2023-06-26T00:26:20;97926.19;;;25.68;80.11
17635;BME280;8936;49.010;12.120;2023-06-26T00:28:48;97921.44;;;25.65;80.24
17635;BME280;8936;49.010;12.120;2023-06-26T00:31:14;97919.50;;;25.65;80.10
17635;BME280;8936;49.010;12.120;2023-06-26T00:33:41;97922.91;;;25.82;78.89
17635;BME280;8936;49.010;12.120;2023-06-26T00:36:07;97922.63;;;25.87;78.14
17635;BME280;8936;49.010;12.120;2023-06-26T00:38:34;97923.06;;;25.89;77.15
17635;BME280;8936;49.010;12.120;2023-06-26T00:41:00;97928.09;;;25.87;76.96
17635;BME280;8936;49.010;12.120;2023-06-26T00:43:27;97926.09;;;25.84;77.19
17635;BME280;8936;49.010;12.120;2023-06-26T00:45:54;97920.56;;;25.80;77.69
17635;BME280;8936;49.010;12.120;2023-06-26T00:48:21;97922.97;;;25.85;77.78
17635;BME280;8936;49.010;12.120;2023-06-26T00:50:47;97922.13;;;25.43;80.59
17635;BME280;8936;49.010;12.120;2023-06-26T00:53:14;97924.06;;;25.42;80.88
17635;BME280;8936;49.010;12.120;2023-06-26T00:55:40;97920.72;;;25.49;80.76
17635;BME280;8936;49.010;12.120;2023-06-26T00:58:06;97927.09;;;25.56;80.22
17635;BME280;8936;49.010;12.120;2023-06-26T01:03:04;97923.38;;;25.64;79.99
17635;BME280;8936;49.010;12.120;2023-06-26T01:05:31;97929.56;;;25.61;80.03
17635;BME280;8936;49.010;12.120;2023-06-26T01:07:57;97920.06;;;25.55;80.51
17635;BME280;8936;49.010;12.120;2023-06-26T01:10:24;97923.41;;;25.30;82.77
17635;BME280;8936;49.010;12.120;2023-06-26T01:12:52;97928.78;;;25.26;84.09
17635;BME280;8936;49.010;12.120;2023-06-26T01:15:19;97922.19;;;25.27;84.05
17635;BME280;8936;49.010;12.120;2023-06-26T01:17:45;97913.91;;;25.23;83.95
17635;BME280;8936;49.010;12.120;2023-06-26T01:20:13;97912.06;;;25.28;83.78
17635;BME280;8936;49.010;12.120;2023-06-26T01:22:43;97911.56;;;25.22;83.17
17635;BME280;8936;49.010;12.120;2023-06-26T01:25:12;97911.66;;;25.10;83.66
17635;BME280;8936;49.010;12.120;2023-06-26T01:27:45;97907.28;;;25.05;83.75
17635;BME280;8936;49.010;12.120;2023-06-26T01:30:11;97905.56;;;24.97;83.88
17635;BME280;8936;49.010;12.120;2023-06-26T01:32:39;97913.56;;;24.90;84.18
17635;BME280;8936;49.010;12.120;2023-06-26T01:35:05;97907.13;;;24.98;83.54
17635;BME280;8936;49.010;12.120;2023-06-26T01:37:33;97906.41;;;25.01;82.88
17635;BME280;8936;49.010;12.120;2023-06-26T01:39:59;97907.63;;;25.04;82.51
17635;BME280;8936;49.010;12.120;2023-06-26T01:42:25;97903.59;;;24.98;82.93
17635;BME280;8936;49.010;12.120;2023-06-26T01:44:53;97902.28;;;24.92;83.11
17635;BME280;8936;49.010;12.120;2023-06-26T01:47:22;97908.53;;;24.92;83.25
17635;BME280;8936;49.010;12.120;2023-06-26T01:49:52;97907.22;;;24.86;83.02
17635;BME280;8936;49.010;12.120;2023-06-26T01:52:20;97911.78;;;24.98;82.47
17635;BME280;8936;49.010;12.120;2023-06-26T01:54:50;97908.91;;;24.91;82.42
17635;BME280;8936;49.010;12.120;2023-06-26T01:57:18;97910.56;;;24.80;83.28
17635;BME280;8936;49.010;12.120;2023-06-26T01:59:47;97905.31;;;24.71;83.84
17635;BME280;8936;49.010;12.120;2023-06-26T02:02:15;97903.78;;;24.73;83.91
17635;BME280;8936;49.010;12.120;2023-06-26T02:04:42;97905.81;;;24.77;83.84
17635;BME280;8936;49.010;12.120;2023-06-26T02:07:08;97910.41;;;24.73;83.67
17635;BME280;8936;49.010;12.120;2023-06-26T02:09:35;97901.53;;;24.60;84.27
17635;BME280;8936;49.010;12.120;2023-06-26T02:12:02;97913.22;;;24.60;85.02
17635;BME280;8936;49.010;12.120;2023-06-26T02:14:28;97916.75;;;24.61;84.79
17635;BME280;8936;49.010;12.120;2023-06-26T02:16:54;97918.53;;;24.53;85.02
17635;BME280;8936;49.010;12.120;2023-06-26T02:19:22;97912.09;;;24.61;85.06
17635;BME280;8936;49.010;12.120;2023-06-26T02:21:50;97914.13;;;24.64;84.03
17635;BME280;8936;49.010;12.120;2023-06-26T02:24:16;97912.28;;;24.53;84.91
17635;BME280;8936;49.010;12.120;2023-06-26T02:26:42;97908.34;;;24.35;86.21
17635;BME280;8936;49.010;12.120;2023-06-26T02:29:09;97913.44;;;24.36;86.41
17635;BME280;8936;49.010;12.120;2023-06-26T02:31:35;97906.03;;;24.52;85.58
17635;BME280;8936;49.010;12.120;2023-06-26T02:34:01;97904.72;;;24.46;85.24
17635;BME280;8936;49.010;12.120;2023-06-26T02:36:29;97907.97;;;24.36;85.98
17635;BME280;8936;49.010;12.120;2023-06-26T02:38:55;97903.69;;;24.35;86.24
17635;BME280;8936;49.010;12.120;2023-06-26T02:41:22;97906.50;;;24.23;87.41
17635;BME280;8936;49.010;12.120;2023-06-26T02:43:48;97907.25;;;24.24;87.63
17635;BME280;8936;49.010;12.120;2023-06-26T02:46:14;97910.59;;;24.33;87.17
17635;BME280;8936;49.010;12.120;2023-06-26T02:48:41;97906.66;;;24.30;87.06
17635;BME280;8936;49.010;12.120;2023-06-26T02:51:07;97910.28;;;24.34;86.55
17635;BME280;8936;49.010;12.120;2023-06-26T02:53:35;97915.28;;;24.32;86.44
17635;BME280;8936;49.010;12.120;2023-06-26T02:56:01;97914.59;;;24.20;87.29
17635;BME280;8936;49.010;12.120;2023-06-26T02:58:28;97914.69;;;24.23;87.03
17635;BME280;8936;49.010;12.120;2023-06-26T03:00:54;97915.13;;;24.25;86.86
17635;BME280;8936;49.010;12.120;2023-06-26T03:03:21;97914.69;;;24.23;86.98
17635;BME280;8936;49.010;12.120;2023-06-26T03:05:47;97909.91;;;24.36;86.12
17635;BME280;8936;49.010;12.120;2023-06-26T03:08:14;97909.47;;;24.34;86.36
17635;BME280;8936;49.010;12.120;2023-06-26T03:10:42;97909.66;;;24.41;85.95
17635;BME280;8936;49.010;12.120;2023-06-26T03:13:09;97904.28;;;24.44;85.76
17635;BME280;8936;49.010;12.120;2023-06-26T03:15:35;97909.38;;;24.30;86.93
17635;BME280;8936;49.010;12.120;2023-06-26T03:18:01;97910.97;;;24.31;87.41
17635;BME280;8936;49.010;12.120;2023-06-26T03:20:28;97912.56;;;24.32;87.18
17635;BME280;8936;49.010;12.120;2023-06-26T03:22:54;97911.41;;;24.33;87.12
17635;BME280;8936;49.010;12.120;2023-06-26T03:25:20;97922.22;;;24.14;88.62
17635;BME280;8936;49.010;12.120;2023-06-26T03:27:48;97919.50;;;24.14;89.28
17635;BME280;8936;49.010;12.120;2023-06-26T03:30:15;97913.88;;;24.23;88.68
17635;BME280;8936;49.010;12.120;2023-06-26T03:32:41;97917.13;;;24.28;87.91
17635;BME280;8936;49.010;12.120;2023-06-26T03:35:08;97917.56;;;24.30;87.66
17635;BME280;8936;49.010;12.120;2023-06-26T03:37:34;97913.34;;;24.33;87.81
17635;BME280;8936;49.010;12.120;2023-06-26T03:40:01;97921.53;;;24.33;87.57
17635;BME280;8936;49.010;12.120;2023-06-26T03:42:29;97920.53;;;24.09;89.82
17635;BME280;8936;49.010;12.120;2023-06-26T03:44:57;97915.41;;;24.08;90.61
17635;BME280;8936;49.010;12.120;2023-06-26T03:47:23;97918.06;;;24.04;91.15
17635;BME280;8936;49.010;12.120;2023-06-26T03:49:50;97932.94;;;24.07;91.00
17635;BME280;8936;49.010;12.120;2023-06-26T03:52:16;97920.28;;;24.14;90.05
17635;BME280;8936;49.010;12.120;2023-06-26T03:54:42;97917.03;;;24.25;89.37
17635;BME280;8936;49.010;12.120;2023-06-26T03:57:09;97922.16;;;24.26;89.24
17635;BME280;8936;49.010;12.120;2023-06-26T03:59:35;97913.34;;;24.17;89.44
17635;BME280;8936;49.010;12.120;2023-06-26T04:02:03;97917.28;;;24.04;90.34
17635;BME280;8936;49.010;12.120;2023-06-26T04:04:30;97914.69;;;23.95;91.04
17635;BME280;8936;49.010;12.120;2023-06-26T04:06:56;97919.53;;;24.02;90.95
17635;BME280;8936;49.010;12.120;2023-06-26T04:09:24;97920.06;;;23.92;92.54
17635;BME280;8936;49.010;12.120;2023-06-26T04:11:50;97926.84;;;23.98;92.73
17635;BME280;8936;49.010;12.120;2023-06-26T04:14:16;97934.34;;;24.01;92.47
17635;BME280;8936;49.010;12.120;2023-06-26T04:16:43;97918.06;;;24.04;91.95
17635;BME280;8936;49.010;12.120;2023-06-26T04:19:12;97919.25;;;24.19;90.53
17635;BME280;8936;49.010;12.120;2023-06-26T04:21:38;97922.34;;;24.05;90.41
17635;BME280;8936;49.010;12.120;2023-06-26T04:24:05;97920.38;;;24.18;89.18
17635;BME280;8936;49.010;12.120;2023-06-26T04:26:31;97925.75;;;24.14;89.51
17635;BME280;8936;49.010;12.120;2023-06-26T04:28:58;97918.53;;;24.22;89.35
17635;BME280;8936;49.010;12.120;2023-06-26T04:31:25;97913.69;;;24.15;90.15
17635;BME280;8936;49.010;12.120;2023-06-26T04:33:51;97917.06;;;23.97;91.54
17635;BME280;8936;49.010;12.120;2023-06-26T04:36:21;97906.59;;;23.55;95.21
17635;BME280;8936;49.010;12.120;2023-06-26T04:38:47;97910.16;;;23.44;96.24
17635;BME280;8936;49.010;12.120;2023-06-26T04:41:15;97907.13;;;23.21;99.92
17635;BME280;8936;49.010;12.120;2023-06-26T04:43:41;97911.50;;;23.10;100.00
17635;BME280;8936;49.010;12.120;2023-06-26T04:46:07;97914.72;;;23.40;98.72
17635;BME280;8936;49.010;12.120;2023-06-26T04:48:34;97913.59;;;23.41;99.68
17635;BME280;8936;49.010;12.120;2023-06-26T04:51:00;97910.63;;;23.34;100.00
17635;BME280;8936;49.010;12.120;2023-06-26T04:53:28;97915.16;;;23.02;100.00
17635;BME280;8936;49.010;12.120;2023-06-26T05:15:48;97914.16;;;21.35;100.00
17635;BME280;8936;49.010;12.120;2023-06-26T05:18:14;97914.13;;;21.23;100.00
17635;BME280;8936;49.010;12.120;2023-06-26T05:20:41;97917.97;;;21.22;100.00
17635;BME280;8936;49.010;12.120;2023-06-26T05:23:08;97916.72;;;21.20;100.00
17635;BME280;8936;49.010;12.120;2023-06-26T05:25:36;97910.31;;;20.95;100.00
17635;BME280;8936;49.010;12.120;2023-06-26T05:28:03;97913.84;;;20.66;100.00
17635;BME280;8936;49.010;12.120;2023-06-26T05:30:30;97916.22;;;20.68;100.00
17635;BME280;8936;49.010;12.120;2023-06-26T05:33:01;97919.75;;;21.18;100.00
17635;BME280;8936;49.010;12.120;2023-06-26T05:35:28;97915.91;;;21.40;100.00
17635;BME280;8936;49.010;12.120;2023-06-26T05:37:54;97906.53;;;21.82;100.00
17635;BME280;8936;49.010;12.120;2023-06-26T05:40:21;97911.41;;;22.10;100.00
17635;BME280;8936;49.010;12.120;2023-06-26T05:42:48;97903.81;;;22.03;100.00
17635;BME280;8936;49.010;12.120;2023-06-26T05:45:14;97909.84;;;21.88;100.00
17635;BME280;8936;49.010;12.120;2023-06-26T05:47:41;97910.78;;;21.92;100.00
17635;BME280;8936;49.010;12.120;2023-06-26T05:50:09;97910.59;;;22.09;100.00
17635;BME280;8936;49.010;12.120;2023-06-26T05:52:36;97909.50;;;22.46;100.00
17635;BME280;8936;49.010;12.120;2023-06-26T05:55:04;97906.69;;;22.67;100.00
17635;BME280;8936;49.010;12.120;2023-06-26T05:57:31;97905.22;;;22.70;100.00
17635;BME280;8936;49.010;12.120;2023-06-26T05:59:57;97900.19;;;22.96;100.00
17635;BME280;8936;49.010;12.120;2023-06-26T06:02:24;97906.47;;;23.12;100.00
17635;BME280;8936;49.010;12.120;2023-06-26T06:04:50;97904.88;;;23.23;100.00
17635;BME280;8936;49.010;12.120;2023-06-26T06:07:18;97910.16;;;23.04;100.00
17635;BME280;8936;49.010;12.120;2023-06-26T06:09:44;97912.78;;;22.64;100.00
17635;BME280;8936;49.010;12.120;2023-06-26T06:12:11;97918.22;;;22.52;100.00
17635;BME280;8936;49.010;12.120;2023-06-26T06:14:37;97919.16;;;22.56;100.00
17635;BME280;8936;49.010;12.120;2023-06-26T06:17:03;97913.78;;;22.59;100.00
17635;BME280;8936;49.010;12.120;2023-06-26T06:19:30;97906.66;;;22.55;100.00
17635;BME280;8936;49.010;12.120;2023-06-26T06:21:56;97906.34;;;22.81;100.00
17635;BME280;8936;49.010;12.120;2023-06-26T06:24:24;97905.53;;;22.92;100.00
17635;BME280;8936;49.010;12.120;2023-06-26T06:26:50;97897.53;;;23.11;100.00
17635;BME280;8936;49.010;12.120;2023-06-26T06:29:17;97906.38;;;23.21;100.00
17635;BME280;8936;49.010;12.120;2023-06-26T06:31:44;97900.44;;;23.19;100.00
17635;BME280;8936;49.010;12.120;2023-06-26T06:34:11;97909.28;;;23.28;100.00
17635;BME280;8936;49.010;12.120;2023-06-26T06:36:38;97918.00;;;23.45;100.00
17635;BME280;8936;49.010;12.120;2023-06-26T06:39:04;97906.41;;;23.48;100.00
17635;BME280;8936;49.010;12.120;2023-06-26T06:41:32;97904.72;;;23.72;100.00
17635;BME280;8936;49.010;12.120;2023-06-26T06:43:58;97908.16;;;23.84;99.81
17635;BME280;8936;49.010;12.120;2023-06-26T06:46:25;97912.03;;;23.83;100.00
17635;BME280;8936;49.010;12.120;2023-06-26T06:48:52;97906.56;;;23.83;100.00
17635;BME280;8936;49.010;12.120;2023-06-26T06:51:18;97905.09;;;23.86;100.00
17635;BME280;8936;49.010;12.120;2023-06-26T06:53:45;97902.22;;;23.94;98.81
17635;BME280;8936;49.010;12.120;2023-06-26T06:56:11;97903.72;;;23.92;96.34
17635;BME280;8936;49.010;12.120;2023-06-26T06:58:39;97902.06;;;24.18;96.42
17635;BME280;8936;49.010;12.120;2023-06-26T07:01:07;97900.94;;;24.35;93.94
17635;BME280;8936;49.010;12.120;2023-06-26T07:03:34;97900.94;;;24.35;91.07
17635;BME280;8936;49.010;12.120;2023-06-26T07:06:01;97900.66;;;24.40;87.15
17635;BME280;8936;49.010;12.120;2023-06-26T07:08:28;97898.13;;;24.32;88.05
17635;BME280;8936;49.010;12.120;2023-06-26T07:10:55;97901.28;;;24.34;89.33
17635;BME280;8936;49.010;12.120;2023-06-26T07:13:21;97899.69;;;24.33;90.75
17635;BME280;8936;49.010;12.120;2023-06-26T07:15:49;97887.38;;;24.23;90.05
17635;BME280;8936;49.010;12.120;2023-06-26T07:18:15;97889.94;;;24.16;91.50
17635;BME280;8936;49.010;12.120;2023-06-26T07:20:42;97892.84;;;24.23;92.19
17635;BME280;8936;49.010;12.120;2023-06-26T07:23:08;97886.75;;;24.30;89.01
17635;BME280;8936;49.010;12.120;2023-06-26T07:25:35;97881.63;;;24.59;85.50
17635;BME280;8936;49.010;12.120;2023-06-26T07:28:01;97886.75;;;24.45;84.19
17635;BME280;8936;49.010;12.120;2023-06-26T07:30:28;97887.22;;;24.32;82.99
17635;BME280;8936;49.010;12.120;2023-06-26T07:32:55;97890.25;;;24.46;86.57
17635;BME280;8936;49.010;12.120;2023-06-26T07:35:22;97890.53;;;24.41;84.79
17635;BME280;8936;49.010;12.120;2023-06-26T07:37:48;97897.13;;;24.40;88.09
17635;BME280;8936;49.010;12.120;2023-06-26T07:40:14;97895.28;;;24.44;86.59
17635;BME280;8936;49.010;12.120;2023-06-26T07:42:42;97882.84;;;24.62;86.52
17635;BME280;8936;49.010;12.120;2023-06-26T07:45:09;97888.63;;;24.76;86.24
17635;BME280;8936;49.010;12.120;2023-06-26T07:47:37;97880.81;;;24.75;83.99
17635;BME280;8936;49.010;12.120;2023-06-26T07:50:05;97887.31;;;24.86;84.07
17635;BME280;8936;49.010;12.120;2023-06-26T07:52:31;97886.34;;;25.13;83.23
17635;BME280;8936;49.010;12.120;2023-06-26T07:54:58;97887.16;;;25.33;82.34
17635;BME280;8936;49.010;12.120;2023-06-26T07:57:24;97884.50;;;25.36;82.45
17635;BME280;8936;49.010;12.120;2023-06-26T07:59:51;97888.09;;;25.21;80.60
17635;BME280;8936;49.010;12.120;2023-06-26T08:02:17;97875.03;;;24.95;83.50
17635;BME280;8936;49.010;12.120;2023-06-26T08:04:44;97875.41;;;24.94;83.64
17635;BME280;8936;49.010;12.120;2023-06-26T08:07:11;97874.44;;;25.21;83.67
17635;BME280;8936;49.010;12.120;2023-06-26T08:09:39;97877.97;;;25.21;82.16
17635;BME280;8936;49.010;12.120;2023-06-26T08:12:06;97879.41;;;25.15;82.99
17635;BME280;8936;49.010;12.120;2023-06-26T08:14:32;97868.81;;;25.33;83.26
17635;BME280;8936;49.010;12.120;2023-06-26T08:16:58;97878.69;;;25.38;80.92
17635;BME280;8936;49.010;12.120;2023-06-26T08:19:25;97864.34;;;25.44;80.85
17635;BME280;8936;49.010;12.120;2023-06-26T08:21:52;97871.78;;;25.44;80.66
17635;BME280;8936;49.010;12.120;2023-06-26T08:24:19;97864.09;;;25.49;81.77
17635;BME280;8936;49.010;12.120;2023-06-26T08:26:46;97864.34;;;25.63;79.58
17635;BME280;8936;49.010;12.120;2023-06-26T08:29:12;97867.09;;;25.63;79.56
17635;BME280;8936;49.010;12.120;2023-06-26T08:31:39;97865.53;;;25.62;80.45
17635;BME280;8936;49.010;12.120;2023-06-26T08:34:06;97860.84;;;25.86;80.24
17635;BME280;8936;49.010;12.120;2023-06-26T08:36:32;97854.66;;;25.89;77.28
17635;BME280;8936;49.010;12.120;2023-06-26T08:38:58;97859.53;;;25.99;78.05
17635;BME280;8936;49.010;12.120;2023-06-26T08:41:26;97855.06;;;25.91;78.25
17635;BME280;8936;49.010;12.120;2023-06-26T08:43:53;97844.84;;;25.88;77.77
17635;BME280;8936;49.010;12.120;2023-06-26T08:46:19;97851.56;;;25.90;76.79
17635;BME280;8936;49.010;12.120;2023-06-26T08:48:48;97856.19;;;26.09;76.32
17635;BME280;8936;49.010;12.120;2023-06-26T08:51:16;97844.50;;;26.12;75.79
17635;BME280;8936;49.010;12.120;2023-06-26T08:53:43;97851.31;;;26.44;75.23
17635;BME280;8936;49.010;12.120;2023-06-26T08:56:11;97847.72;;;26.66;74.03
17635;BME280;8936;49.010;12.120;2023-06-26T08:58:41;97849.94;;;26.57;73.14
17635;BME280;8936;49.010;12.120;2023-06-26T09:01:08;97847.09;;;26.76;73.05
17635;BME280;8936;49.010;12.120;2023-06-26T09:03:35;97843.97;;;26.78;70.71
17635;BME280;8936;49.010;12.120;2023-06-26T09:06:02;97839.19;;;26.71;67.65
17635;BME280;8936;49.010;12.120;2023-06-26T09:08:28;97842.22;;;26.89;69.35
17635;BME280;8936;49.010;12.120;2023-06-26T09:10:54;97836.72;;;26.89;70.49
17635;BME280;8936;49.010;12.120;2023-06-26T09:13:21;97827.72;;;26.89;69.45
17635;BME280;8936;49.010;12.120;2023-06-26T09:15:49;97830.22;;;27.01;68.71
17635;BME280;8936;49.010;12.120;2023-06-26T09:18:17;97836.44;;;26.98;67.63
17635;BME280;8936;49.010;12.120;2023-06-26T09:20:44;97829.47;;;27.04;67.75
17635;BME280;8936;49.010;12.120;2023-06-26T09:23:10;97823.00;;;27.19;67.74
17635;BME280;8936;49.010;12.120;2023-06-26T09:25:37;97813.28;;;27.25;67.40
17635;BME280;8936;49.010;12.120;2023-06-26T09:28:04;97817.59;;;27.26;66.46
17635;BME280;8936;49.010;12.120;2023-06-26T09:30:31;97808.53;;;27.22;66.89
17635;BME280;8936;49.010;12.120;2023-06-26T09:33:01;97808.72;;;27.40;66.47
17635;BME280;8936;49.010;12.120;2023-06-26T09:35:38;97807.31;;;27.49;66.78
17635;BME280;8936;49.010;12.120;2023-06-26T09:38:05;97811.25;;;27.52;63.31
17635;BME280;8936;49.010;12.120;2023-06-26T09:40:31;97801.50;;;27.58;62.88
17635;BME280;8936;49.010;12.120;2023-06-26T09:43:02;97799.94;;;27.57;63.75
17635;BME280;8936;49.010;12.120;2023-06-26T09:45:28;97795.31;;;27.64;64.09
17635;BME280;8936;49.010;12.120;2023-06-26T09:47:54;97797.41;;;27.78;60.94
17635;BME280;8936;49.010;12.120;2023-06-26T09:50:26;97797.94;;;27.94;60.86
17635;BME280;8936;49.010;12.120;2023-06-26T09:52:53;97794.59;;;28.15;61.18
17635;BME280;8936;49.010;12.120;2023-06-26T09:55:19;97785.69;;;28.32;60.08
17635;BME280;8936;49.010;12.120;2023-06-26T09:57:47;97786.50;;;28.36;59.04
17635;BME280;8936;49.010;12.120;2023-06-26T10:00:14;97788.84;;;28.34;58.29
17635;BME280;8936;49.010;12.120;2023-06-26T10:02:41;97778.25;;;28.32;56.25
17635;BME280;8936;49.010;12.120;2023-06-26T10:05:07;97780.09;;;28.18;57.80
17635;BME280;8936;49.010;12.120;2023-06-26T10:07:35;97783.00;;;28.39;57.77
17635;BME280;8936;49.010;12.120;2023-06-26T10:10:03;97779.50;;;28.46;56.94
17635;BME280;8936;49.010;12.120;2023-06-26T10:12:31;97763.56;;;28.65;56.93
17635;BME280;8936;49.010;12.120;2023-06-26T10:14:58;97771.47;;;28.77;56.87
17635;BME280;8936;49.010;12.120;2023-06-26T10:17:27;97770.28;;;28.71;56.29
17635;BME280;8936;49.010;12.120;2023-06-26T10:19:54;97763.78;;;28.39;57.97
17635;BME280;8936;49.010;12.120;2023-06-26T10:22:21;97763.81;;;28.46;58.41
17635;BME280;8936;49.010;12.120;2023-06-26T10:24:52;97763.56;;;28.65;56.98
17635;BME280;8936;49.010;12.120;2023-06-26T10:27:22;97760.84;;;28.72;54.95
17635;BME280;8936;49.010;12.120;2023-06-26T10:29:49;97762.06;;;28.85;55.74
17635;BME280;8936;49.010;12.120;2023-06-26T10:32:16;97758.56;;;28.92;53.99
17635;BME280;8936;49.010;12.120;2023-06-26T10:34:44;97752.66;;;28.83;54.64
17635;BME280;8936;49.010;12.120;2023-06-26T10:37:11;97749.22;;;29.14;51.55
17635;BME280;8936;49.010;12.120;2023-06-26T10:39:47;97742.59;;;29.29;50.17
17635;BME280;8936;49.010;12.120;2023-06-26T10:42:16;97740.97;;;29.11;49.62
17635;BME280;8936;49.010;12.120;2023-06-26T10:44:44;97730.69;;;28.97;52.64
17635;BME280;8936;49.010;12.120;2023-06-26T10:47:11;97720.56;;;29.15;49.31
17635;BME280;8936;49.010;12.120;2023-06-26T10:49:37;97726.94;;;29.51;47.63
17635;BME280;8936;49.010;12.120;2023-06-26T10:52:05;97729.66;;;29.30;49.46
17635;BME280;8936;49.010;12.120;2023-06-26T10:54:31;97737.53;;;29.42;50.57
17635;BME280;8936;49.010;12.120;2023-06-26T10:56:58;97730.75;;;29.11;51.79
17635;BME280;8936;49.010;12.120;2023-06-26T10:59:27;97719.38;;;29.23;50.71
17635;BME280;8936;49.010;12.120;2023-06-26T11:01:54;97723.75;;;29.35;49.59
17635;BME280;8936;49.010;12.120;2023-06-26T11:04:35;97718.66;;;29.40;49.77
17635;BME280;8936;49.010;12.120;2023-06-26T11:07:14;97719.84;;;29.54;47.56
17635;BME280;8936;49.010;12.120;2023-06-26T11:09:52;97713.59;;;29.88;45.26
17635;BME280;8936;49.010;12.120;2023-06-26T11:12:33;97717.13;;;29.99;46.15
17635;BME280;8936;49.010;12.120;2023-06-26T11:15:01;97711.97;;;29.59;47.50
17635;BME280;8936;49.010;12.120;2023-06-26T11:17:28;97707.25;;;30.13;45.00
17635;BME280;8936;49.010;12.120;2023-06-26T11:19:55;97710.03;;;30.13;45.97
17635;BME280;8936;49.010;12.120;2023-06-26T11:22:22;97704.16;;;29.86;47.39
17635;BME280;8936;49.010;12.120;2023-06-26T11:24:49;97705.69;;;29.69;50.75
17635;BME280;8936;49.010;12.120;2023-06-26T11:27:19;97708.06;;;29.71;48.15
17635;BME280;8936;49.010;12.120;2023-06-26T11:29:48;97714.38;;;29.85;46.27
17635;BME280;8936;49.010;12.120;2023-06-26T11:32:16;97707.28;;;29.88;46.30
17635;BME280;8936;49.010;12.120;2023-06-26T11:34:43;97700.59;;;30.07;45.74
17635;BME280;8936;49.010;12.120;2023-06-26T11:37:09;97691.09;;;30.25;44.09
17635;BME280;8936;49.010;12.120;2023-06-26T11:39:37;97690.69;;;30.30;44.90
17635;BME280;8936;49.010;12.120;2023-06-26T11:42:04;97688.72;;;30.31;45.04
17635;BME280;8936;49.010;12.120;2023-06-26T11:44:31;97691.53;;;29.99;47.06
17635;BME280;8936;49.010;12.120;2023-06-26T11:46:58;97694.28;;;30.06;47.27
17635;BME280;8936;49.010;12.120;2023-06-26T11:49:25;97693.44;;;30.30;44.63
17635;BME280;8936;49.010;12.120;2023-06-26T11:51:54;97690.25;;;30.53;44.55
17635;BME280;8936;49.010;12.120;2023-06-26T11:54:24;97673.84;;;30.14;46.45
17635;BME280;8936;49.010;12.120;2023-06-26T11:56:54;97679.69;;;30.27;46.31
17635;BME280;8936;49.010;12.120;2023-06-26T11:59:22;97674.94;;;30.45;45.27
17635;BME280;8936;49.010;12.120;2023-06-26T12:01:49;97662.72;;;30.46;45.65
17635;BME280;8936;49.010;12.120;2023-06-26T12:04:17;97660.72;;;30.61;44.46
17635;BME280;8936;49.010;12.120;2023-06-26T12:06:46;97668.81;;;30.96;44.02
17635;BME280;8936;49.010;12.120;2023-06-26T12:09:13;97674.09;;;30.55;46.31
17635;BME280;8936;49.010;12.120;2023-06-26T12:11:40;97657.19;;;30.49;48.58
17635;BME280;8936;49.010;12.120;2023-06-26T12:14:07;97663.41;;;30.71;48.10
17635;BME280;8936;49.010;12.120;2023-06-26T12:16:34;97661.50;;;30.58;47.07
17635;BME280;8936;49.010;12.120;2023-06-26T12:19:01;97660.69;;;30.64;46.76
17635;BME280;8936;49.010;12.120;2023-06-26T12:21:28;97666.16;;;30.71;46.64
17635;BME280;8936;49.010;12.120;2023-06-26T12:23:59;97655.88;;;30.82;45.94
17635;BME280;8936;49.010;12.120;2023-06-26T12:26:26;97649.34;;;31.21;42.53
17635;BME280;8936;49.010;12.120;2023-06-26T12:28:53;97654.41;;;31.29;43.53
17635;BME280;8936;49.010;12.120;2023-06-26T12:31:20;97653.44;;;30.98;45.30
17635;BME280;8936;49.010;12.120;2023-06-26T12:33:47;97652.16;;;31.14;44.82
17635;BME280;8936;49.010;12.120;2023-06-26T12:36:13;97651.81;;;31.04;46.39
17635;BME280;8936;49.010;12.120;2023-06-26T12:38:40;97648.25;;;31.08;45.28
17635;BME280;8936;49.010;12.120;2023-06-26T12:41:12;97648.31;;;30.93;46.26
17635;BME280;8936;49.010;12.120;2023-06-26T12:43:39;97656.63;;;30.90;45.36
17635;BME280;8936;49.010;12.120;2023-06-26T12:46:06;97655.00;;;30.99;44.40
17635;BME280;8936;49.010;12.120;2023-06-26T12:48:36;97645.50;;;31.08;43.76
17635;BME280;8936;49.010;12.120;2023-06-26T12:51:07;97637.53;;;31.20;43.87
17635;BME280;8936;49.010;12.120;2023-06-26T12:53:34;97630.63;;;30.87;44.89
17635;BME280;8936;49.010;12.120;2023-06-26T12:56:00;97630.63;;;30.87;44.88
17635;BME280;8936;49.010;12.120;2023-06-26T12:58:28;97629.03;;;30.97;43.41
17635;BME280;8936;49.010;12.120;2023-06-26T13:00:54;97633.03;;;31.44;40.58
17635;BME280;8936;49.010;12.120;2023-06-26T13:03:22;97624.31;;;31.52;41.85
17635;BME280;8936;49.010;12.120;2023-06-26T13:05:49;97626.00;;;31.80;40.14
17635;BME280;8936;49.010;12.120;2023-06-26T13:08:16;97624.59;;;31.65;41.93
17635;BME280;8936;49.010;12.120;2023-06-26T13:10:44;97623.75;;;31.68;40.61
17635;BME280;8936;49.010;12.120;2023-06-26T13:13:10;97627.38;;;31.62;41.48
17635;BME280;8936;49.010;12.120;2023-06-26T13:15:38;97625.66;;;31.78;40.59
17635;BME280;8936;49.010;12.120;2023-06-26T13:18:04;97626.44;;;31.27;41.91
17635;BME280;8936;49.010;12.120;2023-06-26T13:20:31;97627.78;;;31.60;40.46
17635;BME280;8936;49.010;12.120;2023-06-26T13:22:57;97626.94;;;31.63;41.19